createdAt,value
2017-07-29T00:01:13.349Z,3.30
2017-07-29T00:03:40.831Z,3.67
2017-07-29T00:06:08.336Z,4.20
2017-07-29T00:08:36.764Z,3.62
2017-07-29T00:11:04.261Z,3.35
2017-07-29T00:13:31.744Z,3.58
2017-07-29T00:15:59.234Z,3.78
2017-07-29T00:18:26.739Z,3.35
2017-07-29T00:20:54.221Z,3.50
2017-07-29T00:23:21.705Z,3.10
2017-07-29T00:25:49.196Z,3.40
2017-07-29T00:28:16.680Z,3.40
2017-07-29T00:30:44.186Z,3.00
2017-07-29T00:33:11.664Z,3.20
2017-07-29T00:35:39.148Z,3.67
2017-07-29T00:38:06.633Z,3.45
2017-07-29T00:40:34.117Z,3.75
2017-07-29T00:43:01.620Z,3.60
2017-07-29T00:45:29.112Z,3.08
2017-07-29T00:47:56.604Z,3.25
2017-07-29T00:50:24.106Z,3.40
2017-07-29T00:52:51.584Z,3.10
2017-07-29T00:55:19.088Z,3.03
2017-07-29T00:57:46.583Z,3.12
2017-07-29T01:00:14.068Z,3.25
2017-07-29T01:02:41.556Z,3.28
2017-07-29T01:05:09.040Z,3.83
2017-07-29T01:07:36.540Z,3.55
2017-07-29T01:10:04.036Z,3.22
2017-07-29T01:12:31.527Z,3.37
2017-07-29T01:14:59.034Z,3.67
2017-07-29T01:17:26.521Z,3.42
2017-07-29T01:19:54.013Z,3.20
2017-07-29T01:22:21.515Z,3.80
2017-07-29T01:24:49.029Z,3.50
2017-07-29T01:27:16.508Z,3.20
2017-07-29T01:29:44.002Z,3.97
2017-07-29T01:32:11.487Z,3.53
2017-07-29T01:34:40.008Z,3.60
2017-07-29T01:37:07.496Z,3.50
2017-07-29T01:39:34.982Z,3.60
2017-07-29T01:42:02.480Z,3.40
2017-07-29T01:44:29.965Z,3.97
2017-07-29T01:46:57.463Z,3.67
2017-07-29T01:49:24.939Z,3.22
2017-07-29T01:51:52.435Z,3.70
2017-07-29T01:54:19.916Z,4.22
2017-07-29T01:56:47.216Z,3.42
2017-07-29T01:59:14.724Z,3.30
2017-07-29T02:01:42.203Z,3.50
2017-07-29T02:04:09.687Z,3.47
2017-07-29T02:06:37.176Z,3.70
2017-07-29T02:09:04.396Z,2.92
2017-07-29T02:11:31.905Z,3.60
2017-07-29T02:13:59.552Z,4.45
2017-07-29T02:16:27.037Z,3.50
2017-07-29T02:18:54.520Z,3.53
2017-07-29T02:21:22.004Z,3.90
2017-07-29T02:23:49.506Z,4.50
2017-07-29T02:26:16.999Z,3.70
2017-07-29T02:28:44.480Z,4.30
2017-07-29T02:31:11.968Z,4.05
2017-07-29T02:33:39.447Z,4.15
2017-07-29T02:36:06.953Z,4.80
2017-07-29T02:38:34.436Z,3.92
2017-07-29T02:41:01.916Z,3.55
2017-07-29T02:43:29.407Z,4.00
2017-07-29T02:45:56.896Z,4.30
2017-07-29T02:48:25.388Z,3.65
2017-07-29T02:50:52.870Z,4.00
2017-07-29T02:53:20.352Z,4.10
2017-07-29T02:55:47.840Z,3.55
2017-07-29T02:58:15.321Z,4.22
2017-07-29T03:00:42.823Z,4.20
2017-07-29T03:03:10.304Z,3.80
2017-07-29T03:05:37.793Z,3.60
2017-07-29T03:08:05.269Z,4.30
2017-07-29T03:10:32.764Z,3.20
2017-07-29T03:13:01.284Z,4.70
2017-07-29T03:15:28.772Z,3.80
2017-07-29T03:17:56.252Z,3.92
2017-07-29T03:20:23.728Z,4.05
2017-07-29T03:22:51.217Z,3.95
2017-07-29T03:25:18.733Z,4.20
2017-07-29T03:27:46.216Z,3.65
2017-07-29T03:30:13.698Z,4.40
2017-07-29T03:32:41.191Z,4.70
2017-07-29T03:35:08.706Z,3.90
2017-07-29T03:37:36.212Z,4.03
2017-07-29T03:40:03.697Z,4.10
2017-07-29T03:42:31.180Z,4.03
2017-07-29T03:44:58.668Z,3.80
2017-07-29T03:47:26.156Z,3.97
2017-07-29T03:49:53.664Z,3.85
2017-07-29T03:52:21.150Z,3.95
2017-07-29T03:54:48.636Z,4.05
2017-07-29T03:57:16.121Z,3.62
2017-07-29T03:59:43.601Z,3.50
2017-07-29T04:02:11.108Z,3.72
2017-07-29T04:04:38.594Z,3.87
2017-07-29T04:07:06.080Z,3.85
2017-07-29T04:09:33.565Z,4.12
2017-07-29T04:12:01.045Z,3.80
2017-07-29T04:14:28.550Z,3.87
2017-07-29T04:16:56.036Z,3.78
2017-07-29T04:19:23.519Z,4.75
2017-07-29T04:21:50.998Z,3.78
2017-07-29T04:24:18.480Z,4.60
2017-07-29T04:26:45.980Z,3.53
2017-07-29T04:29:13.460Z,3.60
2017-07-29T04:31:40.944Z,3.47
2017-07-29T04:34:08.430Z,3.22
2017-07-29T04:36:35.917Z,3.40
2017-07-29T04:39:03.232Z,2.75
2017-07-29T04:41:30.717Z,3.33
2017-07-29T04:43:58.208Z,3.10
2017-07-29T04:46:25.684Z,3.20
2017-07-29T04:48:53.724Z,3.08
2017-07-29T04:51:22.232Z,2.70
2017-07-29T04:53:49.716Z,2.87
2017-07-29T04:56:17.201Z,3.72
2017-07-29T04:58:44.680Z,2.78
2017-07-29T05:01:12.161Z,3.10
2017-07-29T05:03:39.674Z,3.15
2017-07-29T05:06:07.167Z,2.90
2017-07-29T05:08:34.653Z,3.50
2017-07-29T05:11:02.132Z,2.80
2017-07-29T05:13:29.625Z,3.15
2017-07-29T05:15:57.132Z,2.70
2017-07-29T05:18:24.612Z,2.85
2017-07-29T05:20:52.102Z,3.10
2017-07-29T05:23:19.590Z,3.67
2017-07-29T05:25:47.078Z,3.15
2017-07-29T05:28:14.584Z,3.08
2017-07-29T05:30:42.069Z,2.92
2017-07-29T05:33:09.562Z,2.90
2017-07-29T05:35:37.049Z,2.67
2017-07-29T05:38:04.535Z,2.92
2017-07-29T05:40:32.036Z,2.70
2017-07-29T05:42:59.521Z,2.50
2017-07-29T05:45:27.003Z,2.28
2017-07-29T05:47:54.493Z,2.70
2017-07-29T05:50:21.980Z,2.60
2017-07-29T05:52:49.481Z,2.80
2017-07-29T05:55:16.969Z,2.55
2017-07-29T05:57:44.465Z,2.20
2017-07-29T06:00:11.940Z,2.30
2017-07-29T06:02:39.236Z,2.00
2017-07-29T06:05:06.743Z,2.12
2017-07-29T06:07:34.229Z,2.08
2017-07-29T06:10:02.380Z,2.30
2017-07-29T06:12:29.579Z,2.63
2017-07-29T06:14:56.789Z,2.40
2017-07-29T06:17:25.950Z,2.30
2017-07-29T06:19:53.146Z,2.57
2017-07-29T06:22:20.346Z,2.57
2017-07-29T06:24:47.545Z,3.00
2017-07-29T06:27:14.753Z,2.77
2017-07-29T06:29:41.972Z,2.27
2017-07-29T06:32:09.173Z,4.33
2017-07-29T06:34:36.376Z,4.93
2017-07-29T06:37:03.604Z,3.00
2017-07-29T06:39:31.743Z,2.60
2017-07-29T06:41:58.972Z,3.60
2017-07-29T06:44:26.181Z,12.90
2017-07-29T06:46:53.381Z,2.90
2017-07-29T06:49:20.601Z,6.43
2017-07-29T06:51:47.804Z,2.50
2017-07-29T06:54:15.005Z,2.40
2017-07-29T06:56:42.209Z,2.13
2017-07-29T06:59:09.409Z,2.40
2017-07-29T07:01:37.586Z,2.90
2017-07-29T07:04:04.788Z,2.00
2017-07-29T07:06:31.992Z,2.87
2017-07-29T07:08:59.222Z,2.33
2017-07-29T07:11:26.422Z,2.60
2017-07-29T07:13:53.620Z,2.20
2017-07-29T07:16:20.819Z,2.50
2017-07-29T07:18:48.020Z,3.53
2017-07-29T07:21:15.237Z,2.30
2017-07-29T07:23:42.433Z,2.90
2017-07-29T07:26:09.633Z,2.90
2017-07-29T07:28:36.832Z,2.90
2017-07-29T07:31:05.012Z,3.20
2017-07-29T07:33:32.231Z,2.80
2017-07-29T07:35:59.434Z,2.67
2017-07-29T07:38:26.633Z,2.83
2017-07-29T07:40:53.837Z,3.00
2017-07-29T07:43:21.039Z,3.03
2017-07-29T07:45:48.284Z,2.73
2017-07-29T07:48:15.488Z,2.50
2017-07-29T07:50:42.693Z,7.20
2017-07-29T07:53:09.898Z,2.90
2017-07-29T07:55:38.040Z,2.47
2017-07-29T07:58:05.259Z,2.37
2017-07-29T08:00:32.469Z,2.10
2017-07-29T08:02:59.664Z,3.10
2017-07-29T08:05:26.865Z,5.00
2017-07-29T08:07:54.068Z,3.13
2017-07-29T08:10:21.287Z,8.50
2017-07-29T08:12:48.485Z,2.90
2017-07-29T08:15:15.693Z,2.63
2017-07-29T08:17:42.892Z,2.67
2017-07-29T08:20:10.088Z,2.73
2017-07-29T08:22:37.312Z,2.50
2017-07-29T08:25:04.511Z,2.80
2017-07-29T08:27:31.712Z,2.87
2017-07-29T08:29:58.908Z,2.53
2017-07-29T08:32:26.109Z,3.00
2017-07-29T08:34:53.332Z,3.00
2017-07-29T08:37:20.523Z,3.03
2017-07-29T08:39:47.720Z,3.00
2017-07-29T08:42:14.921Z,3.03
2017-07-29T08:44:42.115Z,2.50
2017-07-29T08:47:09.346Z,3.03
2017-07-29T08:49:36.548Z,2.77
2017-07-29T08:52:03.753Z,2.53
2017-07-29T08:54:30.948Z,2.93
2017-07-29T08:56:58.149Z,3.60
2017-07-29T08:59:25.376Z,2.80
2017-07-29T09:01:52.581Z,2.57
2017-07-29T09:04:20.729Z,2.50
2017-07-29T09:06:47.931Z,2.30
2017-07-29T09:09:15.132Z,2.63
2017-07-29T09:11:42.356Z,2.57
2017-07-29T09:14:09.556Z,2.77
2017-07-29T09:16:36.752Z,2.43
2017-07-29T09:19:03.954Z,2.30
2017-07-29T09:21:31.149Z,2.57
2017-07-29T09:23:58.365Z,2.50
2017-07-29T09:26:25.570Z,2.67
2017-07-29T09:28:52.769Z,2.60
2017-07-29T09:31:19.961Z,2.20
2017-07-29T09:33:47.165Z,2.83
2017-07-29T09:36:14.384Z,3.03
2017-07-29T09:38:41.579Z,2.73
2017-07-29T09:41:08.789Z,2.87
2017-07-29T09:43:36.023Z,2.50
2017-07-29T09:46:03.220Z,2.30
2017-07-29T09:48:30.444Z,3.20
2017-07-29T09:50:57.645Z,3.70
2017-07-29T09:53:24.848Z,2.73
2017-07-29T09:55:52.048Z,3.43
2017-07-29T09:58:19.258Z,2.93
2017-07-29T10:00:46.476Z,2.30
2017-07-29T10:03:14.627Z,2.80
2017-07-29T10:05:41.825Z,3.07
2017-07-29T10:08:09.025Z,2.43
2017-07-29T10:10:36.226Z,2.90
2017-07-29T10:13:03.444Z,2.90
2017-07-29T10:15:31.579Z,2.57
2017-07-29T10:17:58.777Z,2.80
2017-07-29T10:20:25.978Z,2.50
2017-07-29T10:22:54.135Z,2.43
2017-07-29T10:25:21.384Z,3.30
2017-07-29T10:27:48.585Z,3.00
2017-07-29T10:30:15.789Z,2.63
2017-07-29T10:32:42.983Z,2.60
2017-07-29T10:35:10.177Z,3.53
2017-07-29T10:37:39.332Z,2.47
2017-07-29T10:40:06.532Z,2.57
2017-07-29T10:42:33.735Z,2.60
2017-07-29T10:45:00.935Z,2.40
2017-07-29T10:47:28.142Z,2.87
2017-07-29T10:49:55.361Z,2.33
2017-07-29T10:52:22.577Z,2.57
2017-07-29T10:54:50.696Z,2.70
2017-07-29T10:57:17.898Z,2.70
2017-07-29T10:59:45.093Z,2.67
2017-07-29T11:02:12.316Z,2.57
2017-07-29T11:04:39.521Z,2.50
2017-07-29T11:07:06.712Z,2.77
2017-07-29T11:09:33.915Z,2.73
2017-07-29T11:12:01.113Z,2.27
2017-07-29T11:14:28.333Z,2.20
2017-07-29T11:16:55.542Z,3.20
2017-07-29T11:19:22.745Z,2.70
2017-07-29T11:21:50.932Z,2.70
2017-07-29T11:24:18.123Z,3.00
2017-07-29T11:26:45.341Z,2.70
2017-07-29T11:29:12.536Z,2.50
2017-07-29T11:31:39.744Z,2.63
2017-07-29T11:34:06.940Z,2.40
2017-07-29T11:36:34.136Z,2.73
2017-07-29T11:39:01.357Z,2.83
2017-07-29T11:41:28.568Z,2.90
2017-07-29T11:43:56.689Z,2.80
2017-07-29T11:46:23.889Z,2.70
2017-07-29T11:48:51.092Z,2.80
2017-07-29T11:51:18.320Z,2.20
2017-07-29T11:53:45.516Z,2.60
2017-07-29T11:56:12.712Z,2.83
2017-07-29T11:58:39.908Z,3.17
2017-07-29T12:01:07.108Z,2.50
2017-07-29T12:03:34.340Z,3.13
2017-07-29T12:06:01.541Z,2.83
2017-07-29T12:08:28.739Z,2.90
2017-07-29T12:10:55.941Z,2.47
2017-07-29T12:13:23.148Z,2.70
2017-07-29T12:15:52.322Z,2.80
2017-07-29T12:18:19.529Z,2.43
2017-07-29T12:20:46.719Z,2.60
2017-07-29T12:23:13.925Z,2.53
2017-07-29T12:25:41.120Z,2.20
2017-07-29T12:28:10.304Z,3.10
2017-07-29T12:30:37.510Z,3.10
2017-07-29T12:33:04.711Z,2.83
2017-07-29T12:35:32.881Z,2.33
2017-07-29T12:38:00.076Z,2.80
2017-07-29T12:40:27.301Z,3.03
2017-07-29T12:42:54.499Z,3.20
2017-07-29T12:45:21.700Z,3.60
2017-07-29T12:47:48.909Z,3.87
2017-07-29T12:50:17.040Z,2.57
2017-07-29T12:52:44.260Z,2.30
2017-07-29T12:55:11.461Z,1.93
2017-07-29T12:57:38.652Z,2.30
2017-07-29T13:00:05.849Z,2.30
2017-07-29T13:02:33.044Z,1.90
2017-07-29T13:05:00.256Z,2.53
2017-07-29T13:07:27.456Z,2.40
2017-07-29T13:09:54.655Z,2.57
2017-07-29T13:12:21.860Z,2.17
2017-07-29T13:14:49.052Z,3.17
2017-07-29T13:17:16.267Z,2.03
2017-07-29T13:19:43.476Z,1.97
2017-07-29T13:22:10.677Z,2.10
2017-07-29T13:24:39.853Z,2.30
2017-07-29T13:27:07.048Z,2.30
2017-07-29T13:29:34.252Z,2.20
2017-07-29T13:32:02.375Z,2.10
2017-07-29T13:34:29.576Z,2.33
2017-07-29T13:36:56.776Z,1.83
2017-07-29T13:39:23.980Z,1.70
2017-07-29T13:41:51.182Z,2.20
2017-07-29T13:44:18.383Z,2.10
2017-07-29T13:46:45.577Z,1.80
2017-07-29T13:49:12.776Z,1.70
2017-07-29T13:51:40.000Z,1.90
2017-07-29T13:54:07.201Z,1.90
2017-07-29T13:56:34.406Z,2.03
2017-07-29T13:59:01.613Z,2.00
2017-07-29T14:01:28.810Z,2.07
2017-07-29T14:03:56.028Z,2.43
2017-07-29T14:06:23.224Z,1.53
2017-07-29T14:08:50.434Z,1.67
2017-07-29T14:11:17.641Z,1.40
2017-07-29T14:13:44.848Z,1.87
2017-07-29T14:16:12.066Z,1.60
2017-07-29T14:18:39.261Z,1.60
2017-07-29T14:21:06.457Z,1.80
2017-07-29T14:23:33.655Z,1.97
2017-07-29T14:26:00.852Z,2.30
2017-07-29T14:28:30.032Z,1.53
2017-07-29T14:30:57.235Z,1.80
2017-07-29T14:33:24.435Z,1.70
2017-07-29T14:35:51.636Z,1.97
2017-07-29T14:38:18.832Z,1.83
2017-07-29T14:40:47.992Z,1.60
2017-07-29T14:43:15.187Z,1.60
2017-07-29T14:45:42.384Z,1.40
2017-07-29T14:48:20.830Z,1.70
2017-07-29T14:50:48.024Z,1.80
2017-07-29T14:53:15.829Z,2.17
2017-07-29T14:55:43.026Z,1.47
2017-07-29T14:58:10.228Z,1.70
2017-07-29T15:00:37.424Z,1.90
2017-07-29T15:03:04.626Z,2.10
2017-07-29T15:05:31.858Z,1.77
2017-07-29T15:07:59.072Z,2.47
2017-07-29T15:10:26.292Z,2.43
2017-07-29T15:12:53.491Z,2.40
2017-07-29T15:15:20.692Z,2.53
2017-07-29T15:17:47.904Z,2.60
2017-07-29T15:20:15.097Z,2.70
2017-07-29T15:22:43.248Z,2.17
2017-07-29T15:25:10.448Z,3.03
2017-07-29T15:27:37.648Z,2.63
2017-07-29T15:30:04.864Z,2.70
2017-07-29T15:32:32.068Z,3.07
2017-07-29T15:34:59.272Z,3.10
2017-07-29T15:37:26.473Z,2.40
2017-07-29T15:39:53.674Z,2.73
2017-07-29T15:42:20.893Z,2.90
2017-07-29T15:44:48.092Z,2.77
2017-07-29T15:47:15.293Z,2.43
2017-07-29T15:49:42.489Z,2.73
2017-07-29T15:52:09.689Z,2.80
2017-07-29T15:54:36.916Z,2.30
2017-07-29T15:57:04.193Z,2.70
2017-07-29T15:59:32.327Z,2.40
2017-07-29T16:01:59.523Z,3.17
2017-07-29T16:04:26.753Z,3.27
2017-07-29T16:06:54.899Z,3.00
2017-07-29T16:09:22.105Z,2.80
2017-07-29T16:11:49.332Z,3.87
2017-07-29T16:14:16.532Z,3.33
2017-07-29T16:16:43.756Z,4.20
2017-07-29T16:19:11.892Z,2.87
2017-07-29T16:21:39.097Z,3.10
2017-07-29T16:24:06.300Z,2.87
2017-07-29T16:26:33.499Z,2.40
2017-07-29T16:29:00.724Z,2.20
2017-07-29T16:31:27.920Z,2.30
2017-07-29T16:33:55.125Z,2.20
2017-07-29T16:36:22.330Z,2.10
2017-07-29T16:38:49.528Z,2.60
2017-07-29T16:41:16.752Z,2.43
2017-07-29T16:43:43.944Z,2.40
2017-07-29T16:46:11.148Z,2.10
2017-07-29T16:48:38.355Z,2.30
2017-07-29T16:51:05.584Z,2.30
2017-07-29T16:53:32.805Z,2.27
2017-07-29T16:56:00.000Z,2.23
2017-07-29T16:58:27.201Z,2.10
2017-07-29T17:00:54.403Z,2.10
2017-07-29T17:03:21.604Z,2.30
2017-07-29T17:05:48.832Z,2.23
2017-07-29T17:08:16.028Z,2.10
2017-07-29T17:10:43.239Z,1.70
2017-07-29T17:13:11.368Z,2.17
2017-07-29T17:15:38.566Z,2.00
2017-07-29T17:18:05.792Z,1.83
2017-07-29T17:20:32.990Z,2.20
2017-07-29T17:23:00.188Z,2.00
2017-07-29T17:25:27.420Z,2.10
2017-07-29T17:27:54.619Z,1.70
2017-07-29T17:30:21.834Z,1.87
2017-07-29T17:32:49.037Z,2.10
2017-07-29T17:35:16.232Z,2.30
2017-07-29T17:37:43.444Z,2.50
2017-07-29T17:40:10.651Z,2.90
2017-07-29T17:42:37.868Z,2.43
2017-07-29T17:45:05.068Z,3.30
2017-07-29T17:47:32.265Z,2.60
2017-07-29T17:49:59.472Z,3.10
2017-07-29T17:52:26.663Z,2.67
2017-07-29T17:54:53.894Z,3.33
2017-07-29T17:57:21.120Z,2.93
2017-07-29T17:59:50.041Z,3.17
2017-07-29T18:02:17.242Z,2.90
2017-07-29T18:04:44.449Z,2.80
2017-07-29T18:07:13.617Z,3.13
2017-07-29T18:09:40.829Z,2.70
2017-07-29T18:12:08.037Z,3.27
2017-07-29T18:14:35.229Z,3.60
2017-07-29T18:17:02.430Z,3.00
2017-07-29T18:19:31.591Z,2.90
2017-07-29T18:21:58.796Z,2.87
2017-07-29T18:24:26.003Z,2.80
2017-07-29T18:26:53.200Z,3.40
2017-07-29T18:29:21.338Z,3.30
2017-07-29T18:31:48.556Z,3.00
2017-07-29T18:34:15.748Z,3.20
2017-07-29T18:36:42.965Z,3.07
2017-07-29T18:39:10.172Z,3.10
2017-07-29T18:41:37.386Z,3.23
2017-07-29T18:44:04.647Z,3.47
2017-07-29T18:46:33.037Z,3.23
2017-07-29T18:49:00.239Z,3.47
2017-07-29T18:51:27.439Z,3.20
2017-07-29T18:53:54.640Z,3.30
2017-07-29T18:56:21.860Z,4.00
2017-07-29T18:58:49.060Z,3.70
2017-07-29T19:01:16.256Z,3.77
2017-07-29T19:03:43.463Z,3.30
2017-07-29T19:06:10.678Z,3.63
2017-07-29T19:08:39.840Z,3.20
2017-07-29T19:11:07.045Z,3.77
2017-07-29T19:13:34.030Z,3.90
2017-07-29T19:16:01.238Z,3.53
2017-07-29T19:18:28.443Z,3.70
2017-07-29T19:20:55.713Z,3.87
2017-07-29T19:23:22.917Z,3.50
2017-07-29T19:25:50.117Z,3.63
2017-07-29T19:28:17.323Z,4.00
2017-07-29T19:30:45.464Z,3.70
2017-07-29T19:33:12.694Z,3.30
2017-07-29T19:35:39.904Z,4.10
2017-07-29T19:38:07.120Z,3.80
2017-07-29T19:40:34.369Z,3.70
2017-07-29T19:43:02.223Z,3.70
2017-07-29T19:45:29.432Z,3.57
2017-07-29T19:47:56.656Z,3.83
2017-07-29T19:50:23.855Z,4.10
2017-07-29T19:52:51.057Z,3.93
2017-07-29T19:55:18.260Z,4.00
2017-07-29T19:57:45.835Z,3.47
2017-07-29T20:00:13.061Z,4.30
2017-07-29T20:02:42.428Z,3.70
2017-07-29T20:05:09.627Z,4.00
2017-07-29T20:07:36.828Z,3.90
2017-07-29T20:10:04.088Z,3.50
2017-07-29T20:12:31.303Z,4.30
2017-07-29T20:14:58.522Z,3.80
2017-07-29T20:17:25.735Z,4.00
2017-07-29T20:19:52.949Z,4.13
2017-07-29T20:22:20.152Z,4.47
2017-07-29T20:24:47.351Z,4.23
2017-07-29T20:27:16.524Z,4.43
2017-07-29T20:29:43.728Z,4.27
2017-07-29T20:32:10.924Z,4.30
2017-07-29T20:34:38.121Z,4.00
2017-07-29T20:37:05.344Z,4.30
2017-07-29T20:39:32.561Z,4.97
2017-07-29T20:41:59.764Z,4.73
2017-07-29T20:44:26.956Z,4.53
2017-07-29T20:46:54.151Z,4.93
2017-07-29T20:49:21.353Z,4.60
2017-07-29T20:51:48.581Z,4.90
2017-07-29T20:54:15.785Z,4.50
2017-07-29T20:56:42.984Z,4.77
2017-07-29T20:59:10.179Z,4.87
2017-07-29T21:01:37.385Z,5.07
2017-07-29T21:04:04.602Z,4.90
2017-07-29T21:06:32.747Z,4.93
2017-07-29T21:08:59.952Z,4.97
2017-07-29T21:11:27.153Z,4.73
2017-07-29T21:13:54.365Z,4.17
2017-07-29T21:16:21.595Z,5.17
2017-07-29T21:18:48.796Z,4.80
2017-07-29T21:21:15.996Z,5.60
2017-07-29T21:23:43.197Z,5.90
2017-07-29T21:26:10.402Z,5.27
2017-07-29T21:28:37.648Z,5.10
2017-07-29T21:31:05.798Z,5.00
2017-07-29T21:33:33.001Z,5.20
2017-07-29T21:36:00.205Z,5.77
2017-07-29T21:38:27.405Z,6.37
2017-07-29T21:40:54.632Z,4.90
2017-07-29T21:43:21.831Z,5.60
2017-07-29T21:45:49.036Z,5.37
2017-07-29T21:48:16.232Z,5.70
2017-07-29T21:50:43.438Z,5.80
2017-07-29T21:53:10.696Z,5.23
2017-07-29T21:55:37.892Z,5.77
2017-07-29T21:58:05.099Z,5.83
2017-07-29T22:00:32.295Z,5.40
2017-07-29T22:02:59.496Z,5.87
2017-07-29T22:05:27.006Z,6.25
2017-07-29T22:07:54.244Z,5.83
2017-07-29T22:10:21.445Z,6.00
2017-07-29T22:12:48.664Z,4.67
2017-07-29T22:15:15.873Z,5.20
2017-07-29T22:17:43.385Z,5.30
2017-07-29T22:20:10.873Z,5.95
2017-07-29T22:22:38.072Z,6.20
2017-07-29T22:25:05.272Z,6.20
2017-07-29T22:27:32.473Z,6.43
2017-07-29T22:29:59.697Z,6.87
2017-07-29T22:32:26.897Z,5.40
2017-07-29T22:34:54.096Z,5.83
2017-07-29T22:37:21.580Z,5.55
2017-07-29T22:39:48.780Z,5.50
2017-07-29T22:42:17.953Z,6.20
2017-07-29T22:44:45.156Z,6.27
2017-07-29T22:47:12.356Z,5.73
2017-07-29T22:49:39.837Z,5.90
2017-07-29T22:52:07.333Z,5.70
2017-07-29T22:54:34.547Z,5.67
2017-07-29T22:57:01.747Z,5.47
2017-07-29T22:59:29.896Z,4.90
2017-07-29T23:01:57.378Z,5.12
2017-07-29T23:04:24.865Z,5.25
2017-07-29T23:06:52.376Z,5.50
2017-07-29T23:09:19.576Z,4.73
2017-07-29T23:11:46.781Z,5.77
2017-07-29T23:14:13.987Z,5.47
2017-07-29T23:16:42.125Z,5.10
2017-07-29T23:19:09.351Z,5.13
2017-07-29T23:21:36.848Z,5.32
2017-07-29T23:24:04.045Z,5.13
2017-07-29T23:26:31.245Z,5.10
2017-07-29T23:28:58.732Z,5.28
2017-07-29T23:31:25.952Z,4.83
2017-07-29T23:33:53.439Z,5.25
2017-07-29T23:36:20.925Z,5.30
2017-07-29T23:38:48.130Z,5.47
2017-07-29T23:41:15.324Z,5.70
2017-07-29T23:43:42.840Z,6.70
2017-07-29T23:46:10.336Z,5.80
2017-07-29T23:48:37.824Z,5.72
2017-07-29T23:51:05.032Z,6.90
2017-07-29T23:53:32.520Z,6.40
2017-07-29T23:55:59.789Z,5.60
2017-07-29T23:58:27.280Z,6.30
